createdAt,value
2018-09-21T00:02:09.746Z,18.40
2018-09-21T00:04:37.958Z,18.50
2018-09-21T00:07:06.172Z,18.50
2018-09-21T00:09:34.388Z,18.60
2018-09-21T00:12:02.622Z,18.50
2018-09-21T00:14:30.830Z,18.50
2018-09-21T00:16:59.052Z,18.40
2018-09-21T00:19:27.254Z,18.20
2018-09-21T00:21:55.467Z,18.20
2018-09-21T00:24:23.683Z,18.40
2018-09-21T00:26:52.206Z,18.40
2018-09-21T00:29:20.503Z,18.40
2018-09-21T00:31:48.719Z,18.40
2018-09-21T00:34:17.003Z,18.40
2018-09-21T00:36:45.311Z,18.40
2018-09-21T00:39:13.527Z,18.40
2018-09-21T00:41:41.718Z,18.50
2018-09-21T00:44:09.918Z,18.50
2018-09-21T00:46:38.142Z,18.50
2018-09-21T00:49:06.347Z,18.40
2018-09-21T00:51:34.535Z,18.40
2018-09-21T00:54:02.784Z,18.30
2018-09-21T00:56:30.966Z,18.20
2018-09-21T00:58:59.204Z,18.30
2018-09-21T01:01:27.428Z,18.40
2018-09-21T01:03:55.644Z,18.30
2018-09-21T01:06:23.842Z,18.40
2018-09-21T01:08:52.043Z,18.50
2018-09-21T01:11:20.226Z,18.40
2018-09-21T01:13:48.435Z,18.40
2018-09-21T01:16:16.628Z,18.50
2018-09-21T01:18:44.835Z,18.50
2018-09-21T01:21:13.023Z,18.50
2018-09-21T01:23:41.215Z,18.60
2018-09-21T01:26:09.411Z,18.60
2018-09-21T01:28:37.616Z,18.60
2018-09-21T01:31:06.051Z,18.50
2018-09-21T01:33:34.267Z,18.60
2018-09-21T01:36:02.475Z,18.50
2018-09-21T01:38:30.747Z,18.50
2018-09-21T01:40:58.968Z,18.40
2018-09-21T01:43:27.178Z,18.30
2018-09-21T01:45:55.408Z,18.30
2018-09-21T01:48:23.657Z,18.10
2018-09-21T01:50:51.879Z,18.00
2018-09-21T01:53:20.088Z,18.00
2018-09-21T01:55:48.359Z,17.90
2018-09-21T01:58:16.531Z,17.80
2018-09-21T02:00:44.751Z,17.80
2018-09-21T02:03:13.005Z,17.90
2018-09-21T02:05:41.218Z,17.90
2018-09-21T02:08:09.607Z,18.00
2018-09-21T02:10:37.823Z,17.90
2018-09-21T02:13:06.040Z,18.00
2018-09-21T02:15:34.257Z,17.80
2018-09-21T02:18:02.471Z,17.70
2018-09-21T02:20:30.691Z,17.70
2018-09-21T02:22:58.906Z,17.70
2018-09-21T02:25:27.123Z,17.60
2018-09-21T02:27:55.331Z,17.70
2018-09-21T02:30:23.553Z,17.60
2018-09-21T02:32:51.767Z,17.60
2018-09-21T02:35:19.987Z,17.60
2018-09-21T02:37:48.230Z,17.60
2018-09-21T02:40:16.442Z,17.50
2018-09-21T02:42:44.636Z,17.60
2018-09-21T02:45:12.839Z,17.60
2018-09-21T02:47:41.036Z,17.60
2018-09-21T02:50:09.239Z,17.60
2018-09-21T02:52:37.450Z,17.60
2018-09-21T02:55:05.703Z,17.60
2018-09-21T02:57:33.915Z,17.60
2018-09-21T03:00:02.103Z,17.60
2018-09-21T03:02:30.319Z,17.50
2018-09-21T03:04:58.507Z,17.60
2018-09-21T03:07:26.718Z,17.60
2018-09-21T03:09:55.436Z,17.70
2018-09-21T03:12:23.637Z,17.70
2018-09-21T03:14:51.868Z,17.70
2018-09-21T03:17:20.064Z,17.60
2018-09-21T03:19:48.255Z,17.70
2018-09-21T03:22:16.475Z,17.70
2018-09-21T03:24:44.668Z,17.60
2018-09-21T03:27:12.870Z,17.60
2018-09-21T03:29:41.060Z,17.50
2018-09-21T03:32:09.266Z,17.50
2018-09-21T03:34:37.462Z,17.40
2018-09-21T03:37:05.698Z,17.40
2018-09-21T03:39:33.928Z,17.50
2018-09-21T03:42:02.142Z,17.50
2018-09-21T03:44:30.366Z,17.60
2018-09-21T03:46:58.588Z,17.50
2018-09-21T03:49:26.796Z,17.40
2018-09-21T03:51:55.023Z,17.20
2018-09-21T03:54:23.252Z,17.30
2018-09-21T03:56:51.472Z,17.10
2018-09-21T03:59:19.696Z,17.10
2018-09-21T04:01:47.928Z,17.00
2018-09-21T04:04:16.222Z,17.00
2018-09-21T04:06:44.454Z,16.90
2018-09-21T04:09:12.681Z,16.90
2018-09-21T04:11:41.024Z,16.70
2018-09-21T04:14:09.272Z,16.70
2018-09-21T04:16:37.523Z,16.90
2018-09-21T04:19:05.927Z,16.80
2018-09-21T04:21:34.146Z,16.80
2018-09-21T04:24:02.366Z,17.00
2018-09-21T04:26:30.579Z,16.90
2018-09-21T04:28:58.805Z,16.80
2018-09-21T04:31:27.004Z,16.80
2018-09-21T04:33:55.230Z,16.70
2018-09-21T04:36:23.435Z,16.70
2018-09-21T04:38:51.674Z,16.80
2018-09-21T04:41:19.875Z,16.80
2018-09-21T04:43:48.083Z,16.90
2018-09-21T04:46:16.271Z,16.90
2018-09-21T04:48:44.475Z,16.90
2018-09-21T04:51:12.679Z,17.00
2018-09-21T04:53:40.878Z,17.10
2018-09-21T04:56:09.174Z,17.30
2018-09-21T04:58:37.389Z,17.40
2018-09-21T05:01:05.591Z,17.50
2018-09-21T05:03:33.788Z,17.60
2018-09-21T05:06:01.983Z,17.70
2018-09-21T05:08:30.183Z,17.70
2018-09-21T05:10:58.839Z,17.60
2018-09-21T05:13:27.039Z,17.60
2018-09-21T05:15:55.243Z,17.60
2018-09-21T05:18:23.451Z,17.60
2018-09-21T05:20:51.644Z,17.70
2018-09-21T05:23:19.847Z,17.70
2018-09-21T05:25:48.039Z,17.80
2018-09-21T05:28:16.244Z,17.80
2018-09-21T05:30:44.435Z,17.70
2018-09-21T05:33:12.647Z,17.60
2018-09-21T05:35:40.878Z,17.50
2018-09-21T05:38:09.055Z,17.40
2018-09-21T05:40:37.263Z,17.50
2018-09-21T05:43:05.883Z,17.60
2018-09-21T05:45:34.075Z,17.70
2018-09-21T05:48:02.287Z,17.80
2018-09-21T05:50:30.471Z,17.90
2018-09-21T05:52:58.672Z,18.00
2018-09-21T05:55:26.879Z,18.10
2018-09-21T05:57:55.082Z,18.20
2018-09-21T06:00:23.299Z,18.20
2018-09-21T06:02:51.555Z,18.20
2018-09-21T06:05:19.718Z,18.30
2018-09-21T06:07:47.974Z,18.30
2018-09-21T06:10:16.127Z,18.30
2018-09-21T06:12:44.334Z,18.30
2018-09-21T06:15:12.568Z,18.40
2018-09-21T06:17:40.779Z,18.60
2018-09-21T06:20:12.477Z,18.90
2018-09-21T06:22:45.034Z,19.00
2018-09-21T06:25:06.218Z,19.10
2018-09-21T06:27:34.432Z,19.30
2018-09-21T06:30:02.671Z,19.40
2018-09-21T06:32:30.887Z,19.50
2018-09-21T06:34:59.115Z,19.80
2018-09-21T06:37:27.334Z,20.10
2018-09-21T06:39:55.644Z,20.40
2018-09-21T06:42:23.935Z,20.80
2018-09-21T06:44:52.129Z,21.30
2018-09-21T06:47:20.366Z,21.80
2018-09-21T06:49:48.649Z,22.00
2018-09-21T06:52:16.827Z,22.10
2018-09-21T06:54:45.055Z,22.30
2018-09-21T06:57:13.302Z,22.50
2018-09-21T06:59:41.803Z,23.00
2018-09-21T07:02:10.020Z,23.30
2018-09-21T07:04:38.231Z,23.50
2018-09-21T07:07:06.460Z,23.70
2018-09-21T07:09:34.685Z,23.80
2018-09-21T07:12:02.918Z,23.90
2018-09-21T07:14:31.152Z,24.10
2018-09-21T07:16:59.351Z,24.20
2018-09-21T07:19:27.580Z,24.30
2018-09-21T07:21:55.832Z,24.50
2018-09-21T07:24:24.096Z,24.60
2018-09-21T07:26:52.313Z,24.60
2018-09-21T07:29:20.523Z,24.70
2018-09-21T07:31:48.756Z,24.80
2018-09-21T07:34:16.970Z,24.90
2018-09-21T07:36:45.195Z,24.90
2018-09-21T07:39:13.429Z,24.80
2018-09-21T07:41:41.663Z,24.90
2018-09-21T07:44:09.883Z,24.90
2018-09-21T07:46:38.111Z,24.90
2018-09-21T07:49:06.457Z,25.00
2018-09-21T07:51:34.554Z,24.90
2018-09-21T07:54:02.758Z,25.00
2018-09-21T07:56:30.983Z,25.00
2018-09-21T07:58:59.200Z,25.10
2018-09-21T08:01:27.436Z,25.20
2018-09-21T08:03:55.651Z,25.20
2018-09-21T08:06:23.867Z,25.20
2018-09-21T08:08:52.082Z,25.20
2018-09-21T08:11:20.308Z,25.30
2018-09-21T08:13:48.522Z,25.30
2018-09-21T08:16:16.761Z,25.30
2018-09-21T08:18:44.983Z,25.40
2018-09-21T08:21:13.218Z,25.90
2018-09-21T08:23:41.423Z,26.30
2018-09-21T08:26:09.660Z,26.60
2018-09-21T08:28:37.922Z,26.80
2018-09-21T08:31:06.148Z,27.00
2018-09-21T08:33:34.395Z,27.30
2018-09-21T08:36:02.623Z,27.70
2018-09-21T08:38:30.871Z,27.90
2018-09-21T08:40:59.124Z,27.80
2018-09-21T08:43:27.346Z,27.50
2018-09-21T08:45:55.568Z,27.60
2018-09-21T08:48:23.791Z,27.70
2018-09-21T08:50:52.004Z,28.00
2018-09-21T08:53:20.331Z,28.30
2018-09-21T08:55:48.552Z,28.60
2018-09-21T08:58:16.770Z,28.80
2018-09-21T09:00:44.994Z,29.10
2018-09-21T09:03:13.391Z,29.40
2018-09-21T09:05:41.466Z,29.50
2018-09-21T09:08:09.749Z,29.60
2018-09-21T09:10:37.962Z,29.80
2018-09-21T09:13:06.202Z,30.10
2018-09-21T09:15:34.458Z,30.20
2018-09-21T09:18:02.707Z,30.40
2018-09-21T09:20:30.918Z,30.50
2018-09-21T09:22:59.180Z,30.80
2018-09-21T09:25:27.391Z,31.00
2018-09-21T09:27:55.631Z,31.10
2018-09-21T09:30:23.849Z,31.00
2018-09-21T09:32:52.110Z,30.90
2018-09-21T09:35:20.339Z,30.50
2018-09-21T09:37:48.566Z,30.30
2018-09-21T09:40:16.803Z,30.20
2018-09-21T09:42:45.068Z,29.90
2018-09-21T09:45:13.249Z,29.90
2018-09-21T09:47:41.510Z,29.60
2018-09-21T09:50:09.894Z,29.50
2018-09-21T09:52:38.112Z,29.30
2018-09-21T09:55:06.412Z,29.00
2018-09-21T09:57:34.746Z,28.70
2018-09-21T10:00:02.970Z,28.40
2018-09-21T10:02:31.207Z,28.30
2018-09-21T10:04:59.420Z,28.10
2018-09-21T10:07:27.634Z,27.90
2018-09-21T10:09:55.850Z,27.70
2018-09-21T10:12:24.183Z,27.50
2018-09-21T10:14:52.411Z,27.40
2018-09-21T10:17:20.627Z,27.40
2018-09-21T10:19:48.864Z,27.40
2018-09-21T10:22:17.087Z,27.50
2018-09-21T10:24:45.310Z,27.40
2018-09-21T10:27:13.572Z,27.60
2018-09-21T10:29:41.811Z,27.70
2018-09-21T10:32:10.030Z,27.70
2018-09-21T10:34:38.324Z,27.80
2018-09-21T10:37:06.493Z,27.70
2018-09-21T10:39:34.736Z,27.60
2018-09-21T10:42:02.951Z,27.50
2018-09-21T10:44:31.189Z,27.40
2018-09-21T10:46:59.407Z,27.30
2018-09-21T10:49:27.638Z,27.10
2018-09-21T10:51:55.854Z,26.90
2018-09-21T10:54:24.079Z,26.80
2018-09-21T10:56:52.307Z,26.60
2018-09-21T10:59:20.534Z,26.50
2018-09-21T11:01:48.750Z,26.40
2018-09-21T11:04:16.975Z,26.30
2018-09-21T11:06:45.200Z,26.20
2018-09-21T11:09:13.434Z,26.10
2018-09-21T11:11:41.640Z,26.10
2018-09-21T11:14:09.867Z,26.00
2018-09-21T11:16:38.088Z,26.00
2018-09-21T11:19:06.307Z,25.90
2018-09-21T11:21:34.515Z,25.80
2018-09-21T11:24:02.747Z,25.70
2018-09-21T11:26:30.960Z,25.70
2018-09-21T11:28:59.187Z,25.60
2018-09-21T11:31:27.407Z,25.60
2018-09-21T11:33:55.708Z,25.50
2018-09-21T11:36:23.927Z,25.50
2018-09-21T11:38:52.142Z,25.40
2018-09-21T11:41:20.388Z,25.50
2018-09-21T11:43:48.639Z,25.40
2018-09-21T11:46:16.919Z,25.40
2018-09-21T11:48:45.127Z,25.50
2018-09-21T11:51:13.347Z,25.60
2018-09-21T11:53:41.566Z,25.70
2018-09-21T11:56:09.803Z,25.70
2018-09-21T11:58:38.026Z,25.80
2018-09-21T12:01:06.270Z,25.70
2018-09-21T12:03:34.503Z,25.60
2018-09-21T12:06:05.547Z,25.50
2018-09-21T12:08:34.417Z,25.40
2018-09-21T12:11:02.643Z,25.40
2018-09-21T12:13:30.859Z,25.30
2018-09-21T12:15:59.152Z,25.30
2018-09-21T12:18:27.354Z,25.20
2018-09-21T12:20:55.582Z,25.10
2018-09-21T12:23:23.807Z,25.10
2018-09-21T12:25:52.071Z,25.10
2018-09-21T12:28:20.291Z,25.10
2018-09-21T12:30:48.534Z,24.90
2018-09-21T12:33:16.750Z,24.80
2018-09-21T12:35:44.974Z,24.80
2018-09-21T12:38:13.191Z,24.90
2018-09-21T12:40:41.430Z,24.70
2018-09-21T12:43:09.647Z,24.70
2018-09-21T12:45:37.875Z,24.70
2018-09-21T12:48:06.088Z,24.60
2018-09-21T12:50:34.326Z,24.60
2018-09-21T12:53:02.551Z,24.70
2018-09-21T12:55:30.785Z,24.70
2018-09-21T12:57:59.046Z,24.70
2018-09-21T13:00:31.474Z,24.80
2018-09-21T13:02:59.689Z,24.90
2018-09-21T13:05:27.895Z,24.90
2018-09-21T13:07:56.117Z,24.90
2018-09-21T13:10:24.331Z,24.90
2018-09-21T13:12:52.563Z,24.90
2018-09-21T13:15:20.779Z,24.90
2018-09-21T13:17:49.007Z,25.00
2018-09-21T13:20:17.218Z,25.00
2018-09-21T13:22:45.446Z,25.00
2018-09-21T13:25:13.655Z,24.90
2018-09-21T13:27:41.899Z,24.80
2018-09-21T13:30:10.108Z,24.80
2018-09-21T13:32:38.340Z,24.70
2018-09-21T13:35:06.544Z,24.60
2018-09-21T13:37:34.771Z,24.60
2018-09-21T13:40:02.990Z,24.50
2018-09-21T13:42:31.207Z,24.40
2018-09-21T13:44:59.416Z,24.40
2018-09-21T13:47:27.643Z,24.40
2018-09-21T13:49:55.865Z,24.40
2018-09-21T13:52:24.090Z,24.40
2018-09-21T13:54:52.335Z,24.40
2018-09-21T13:57:20.567Z,24.30
2018-09-21T13:59:48.803Z,24.30
2018-09-21T14:02:17.015Z,24.30
2018-09-21T14:04:45.231Z,24.30
2018-09-21T14:07:13.467Z,24.20
2018-09-21T14:09:41.676Z,24.20
2018-09-21T14:12:09.903Z,24.20
2018-09-21T14:14:38.118Z,24.30
2018-09-21T14:17:06.658Z,24.20
2018-09-21T14:19:34.880Z,24.10
2018-09-21T14:22:03.102Z,24.20
2018-09-21T14:24:31.318Z,24.10
2018-09-21T14:26:59.542Z,24.10
2018-09-21T14:29:27.754Z,24.10
2018-09-21T14:31:55.992Z,24.10
2018-09-21T14:34:24.191Z,24.00
2018-09-21T14:36:52.499Z,24.00
2018-09-21T14:39:20.836Z,24.00
2018-09-21T14:41:49.059Z,24.00
2018-09-21T14:44:17.303Z,23.90
2018-09-21T14:46:45.519Z,23.90
2018-09-21T14:49:13.767Z,23.90
2018-09-21T14:51:41.976Z,23.90
2018-09-21T14:54:10.263Z,23.80
2018-09-21T14:56:38.487Z,23.70
2018-09-21T14:59:08.636Z,23.70
2018-09-21T15:01:40.306Z,23.70
2018-09-21T15:04:08.543Z,23.60
2018-09-21T15:06:36.775Z,23.60
2018-09-21T15:09:06.903Z,23.60
2018-09-21T15:11:35.130Z,23.60
2018-09-21T15:14:03.370Z,23.60
2018-09-21T15:16:31.666Z,23.70
2018-09-21T15:18:59.874Z,23.60
2018-09-21T15:21:28.099Z,23.60
2018-09-21T15:23:57.201Z,23.60
2018-09-21T15:26:25.431Z,23.70
2018-09-21T15:28:53.663Z,23.60
2018-09-21T15:31:21.874Z,23.60
2018-09-21T15:33:50.105Z,23.50
2018-09-21T15:36:18.335Z,23.50
2018-09-21T15:38:46.567Z,23.50
2018-09-21T15:41:14.808Z,23.40
2018-09-21T15:43:43.164Z,23.40
2018-09-21T15:46:11.267Z,23.30
2018-09-21T15:48:39.496Z,23.10
2018-09-21T15:51:08.020Z,22.80
2018-09-21T15:53:36.279Z,22.50
2018-09-21T15:56:04.671Z,22.20
2018-09-21T15:58:32.910Z,22.00
2018-09-21T16:01:01.115Z,21.70
2018-09-21T16:03:29.327Z,21.60
2018-09-21T16:05:57.622Z,21.40
2018-09-21T16:08:25.783Z,21.00
2018-09-21T16:10:54.050Z,20.80
2018-09-21T16:13:22.276Z,20.50
2018-09-21T16:15:50.506Z,20.20
2018-09-21T16:18:18.726Z,20.00
2018-09-21T16:20:46.965Z,19.70
2018-09-21T16:23:15.198Z,19.50
2018-09-21T16:25:43.433Z,19.30
2018-09-21T16:28:11.655Z,19.10
2018-09-21T16:30:39.875Z,19.00
2018-09-21T16:33:08.147Z,18.80
2018-09-21T16:35:36.399Z,18.50
2018-09-21T16:38:04.662Z,18.30
2018-09-21T16:40:32.903Z,18.20
2018-09-21T16:43:01.115Z,18.10
2018-09-21T16:45:29.343Z,18.00
2018-09-21T16:47:57.563Z,17.80
2018-09-21T16:50:25.903Z,17.60
2018-09-21T16:52:54.346Z,17.30
2018-09-21T16:55:22.758Z,17.20
2018-09-21T16:57:51.072Z,17.20
2018-09-21T17:00:19.341Z,17.00
2018-09-21T17:02:47.599Z,16.90
2018-09-21T17:05:15.851Z,16.80
2018-09-21T17:07:44.121Z,16.70
2018-09-21T17:10:12.413Z,16.50
2018-09-21T17:12:40.649Z,16.30
2018-09-21T17:15:08.945Z,16.30
2018-09-21T17:17:37.178Z,16.30
2018-09-21T17:20:05.595Z,16.40
2018-09-21T17:22:33.735Z,16.20
2018-09-21T17:25:01.984Z,16.10
2018-09-21T17:27:30.234Z,16.00
2018-09-21T17:29:58.527Z,16.00
2018-09-21T17:32:26.824Z,15.80
2018-09-21T17:34:55.167Z,15.50
2018-09-21T17:37:23.469Z,15.30
2018-09-21T17:39:51.705Z,15.40
2018-09-21T17:42:19.976Z,15.40
2018-09-21T17:44:48.243Z,15.50
2018-09-21T17:47:16.770Z,15.40
2018-09-21T17:49:45.016Z,15.40
2018-09-21T17:52:13.267Z,15.30
2018-09-21T17:54:41.519Z,15.10
2018-09-21T17:57:09.837Z,14.90
2018-09-21T17:59:38.096Z,14.70
2018-09-21T18:02:06.368Z,14.60
2018-09-21T18:04:34.616Z,14.60
2018-09-21T18:07:02.867Z,14.50
2018-09-21T18:09:31.128Z,14.30
2018-09-21T18:11:59.448Z,14.30
2018-09-21T18:15:01.129Z,14.30
2018-09-21T18:17:37.159Z,14.30
2018-09-21T18:20:13.932Z,14.20
2018-09-21T18:22:42.247Z,14.20
2018-09-21T18:25:10.985Z,14.20
2018-09-21T18:27:39.254Z,14.30
2018-09-21T18:30:09.382Z,14.30
2018-09-21T18:32:37.651Z,14.20
2018-09-21T18:35:06.064Z,14.20
2018-09-21T18:37:34.408Z,14.00
2018-09-21T18:40:02.620Z,13.90
2018-09-21T18:42:30.894Z,14.20
2018-09-21T18:44:59.169Z,14.10
2018-09-21T18:47:27.433Z,14.00
2018-09-21T18:49:55.751Z,14.00
2018-09-21T18:52:24.028Z,13.90
2018-09-21T18:54:52.399Z,13.90
2018-09-21T18:57:20.662Z,13.90
2018-09-21T18:59:48.932Z,13.90
2018-09-21T19:02:17.211Z,13.90
2018-09-21T19:04:45.457Z,13.80
2018-09-21T19:07:19.312Z,13.90
2018-09-21T19:09:47.552Z,14.20
2018-09-21T19:12:15.804Z,14.40
2018-09-21T19:14:44.072Z,14.40
2018-09-21T19:17:12.328Z,14.00
2018-09-21T19:19:40.600Z,13.80
2018-09-21T19:22:08.851Z,13.80
2018-09-21T19:24:37.106Z,13.70
2018-09-21T19:27:05.394Z,13.60
2018-09-21T19:29:33.638Z,13.50
2018-09-21T19:32:01.979Z,13.50
2018-09-21T19:34:30.287Z,13.40
2018-09-21T19:36:58.551Z,13.30
2018-09-21T19:39:26.843Z,13.50
2018-09-21T19:41:55.341Z,13.50
2018-09-21T19:44:23.615Z,13.50
2018-09-21T19:46:51.913Z,13.50
2018-09-21T19:49:20.357Z,13.60
2018-09-21T19:51:48.609Z,13.60
2018-09-21T19:54:16.863Z,13.60
2018-09-21T19:56:45.107Z,13.60
2018-09-21T19:59:13.369Z,13.50
2018-09-21T20:01:41.671Z,13.50
2018-09-21T20:04:09.967Z,13.60
2018-09-21T20:06:38.905Z,13.60
2018-09-21T20:09:24.378Z,13.60
2018-09-21T20:11:52.635Z,13.50
2018-09-21T20:14:20.896Z,13.40
2018-09-21T20:16:49.401Z,13.40
2018-09-21T20:19:17.688Z,13.40
2018-09-21T20:21:45.944Z,13.40
2018-09-21T20:24:14.219Z,13.40
2018-09-21T20:26:42.555Z,13.30
2018-09-21T20:29:10.835Z,13.30
2018-09-21T20:31:45.467Z,13.20
2018-09-21T20:34:13.752Z,13.20
2018-09-21T20:36:42.011Z,13.20
2018-09-21T20:39:10.372Z,13.10
2018-09-21T20:41:38.622Z,13.10
2018-09-21T20:44:06.904Z,13.00
2018-09-21T20:47:10.764Z,13.00
2018-09-21T20:49:39.201Z,13.00
2018-09-21T20:52:07.500Z,13.00
2018-09-21T20:54:36.945Z,12.90
2018-09-21T20:57:05.487Z,12.90
2018-09-21T20:59:33.757Z,13.00
2018-09-21T21:02:02.019Z,13.10
2018-09-21T21:04:30.308Z,13.00
2018-09-21T21:06:58.668Z,13.00
2018-09-21T21:09:26.918Z,13.00
2018-09-21T21:11:55.175Z,13.00
2018-09-21T21:14:23.551Z,13.00
2018-09-21T21:16:51.816Z,13.00
2018-09-21T21:19:20.109Z,13.00
2018-09-21T21:21:48.597Z,13.00
2018-09-21T21:24:16.896Z,13.00
2018-09-21T21:26:45.153Z,12.90
2018-09-21T21:29:13.379Z,13.00
2018-09-21T21:31:41.655Z,13.10
2018-09-21T21:34:09.911Z,13.10
2018-09-21T21:39:24.518Z,13.00
2018-09-21T21:41:52.774Z,13.00
2018-09-21T21:44:21.114Z,13.00
2018-09-21T21:46:49.384Z,12.90
2018-09-21T21:49:17.678Z,12.90
2018-09-21T21:51:45.984Z,12.90
2018-09-21T21:54:14.319Z,12.90
2018-09-21T21:56:42.603Z,12.80
2018-09-21T21:59:11.131Z,12.80
2018-09-21T22:01:46.712Z,12.90
2018-09-21T22:04:16.198Z,13.00
2018-09-21T22:06:44.472Z,13.00
2018-09-21T22:09:13.079Z,13.00
2018-09-21T22:11:46.684Z,13.00
2018-09-21T22:14:15.135Z,13.00
2018-09-21T22:16:43.445Z,13.10
2018-09-21T22:19:12.204Z,13.10
2018-09-21T22:21:40.473Z,13.10
2018-09-21T22:24:08.763Z,13.10
2018-09-21T22:26:37.089Z,13.10
2018-09-21T22:29:05.346Z,13.10
2018-09-21T22:31:33.619Z,13.10
2018-09-21T22:34:01.863Z,13.10
2018-09-21T22:36:30.147Z,13.10
2018-09-21T22:38:58.397Z,13.10
2018-09-21T22:41:26.649Z,13.10
2018-09-21T22:43:54.890Z,13.10
2018-09-21T22:46:23.139Z,13.10
2018-09-21T22:48:52.180Z,13.00
2018-09-21T22:51:20.395Z,13.00
2018-09-21T22:53:48.619Z,13.00
2018-09-21T22:56:16.834Z,13.00
2018-09-21T22:58:45.055Z,13.10
2018-09-21T23:01:13.267Z,13.00
2018-09-21T23:03:41.495Z,13.10
2018-09-21T23:06:09.720Z,12.90
2018-09-21T23:08:37.975Z,12.90
2018-09-21T23:11:06.187Z,13.00
2018-09-21T23:13:34.406Z,13.00
2018-09-21T23:16:02.611Z,12.90
2018-09-21T23:18:30.834Z,13.00
2018-09-21T23:20:59.042Z,13.00
2018-09-21T23:23:27.263Z,13.00
2018-09-21T23:25:55.473Z,13.00
2018-09-21T23:28:23.685Z,13.00
2018-09-21T23:30:51.901Z,13.00
2018-09-21T23:33:20.119Z,13.00
2018-09-21T23:35:48.322Z,13.00
2018-09-21T23:38:16.548Z,13.00
2018-09-21T23:40:44.775Z,13.10
2018-09-21T23:43:12.998Z,13.10
2018-09-21T23:45:41.209Z,13.10
2018-09-21T23:48:09.482Z,13.20
2018-09-21T23:50:37.707Z,13.20
2018-09-21T23:53:05.926Z,13.20
2018-09-21T23:55:34.139Z,13.20
2018-09-21T23:58:02.363Z,13.20
